createdAt,value
2024-02-08T00:00:10.106Z,100.00
2024-02-08T00:02:37.275Z,100.00
2024-02-08T00:05:07.782Z,100.00
2024-02-08T00:07:34.579Z,100.00
2024-02-08T00:10:02.334Z,100.00
2024-02-08T00:12:29.367Z,100.00
2024-02-08T00:14:56.205Z,100.00
2024-02-08T00:17:23.226Z,100.00
2024-02-08T00:19:50.293Z,100.00
2024-02-08T00:22:21.059Z,100.00
2024-02-08T00:24:48.075Z,100.00
2024-02-08T00:27:19.030Z,100.00
2024-02-08T00:29:45.701Z,100.00
2024-02-08T00:32:12.552Z,100.00
2024-02-08T00:34:41.163Z,100.00
2024-02-08T00:37:08.253Z,100.00
2024-02-08T00:39:34.988Z,100.00
2024-02-08T00:42:01.755Z,100.00
2024-02-08T00:44:28.996Z,100.00
2024-02-08T00:46:56.149Z,100.00
2024-02-08T00:49:23.109Z,100.00
2024-02-08T00:51:49.940Z,100.00
2024-02-08T00:54:17.145Z,100.00
2024-02-08T00:56:44.043Z,100.00
2024-02-08T00:59:11.083Z,100.00
2024-02-08T01:01:41.880Z,100.00
2024-02-08T01:04:11.748Z,100.00
2024-02-08T01:06:42.385Z,100.00
2024-02-08T01:09:09.323Z,100.00
2024-02-08T01:11:36.150Z,100.00
2024-02-08T01:14:02.963Z,100.00
2024-02-08T01:16:33.958Z,100.00
2024-02-08T01:19:01.193Z,100.00
2024-02-08T01:21:32.147Z,100.00
2024-02-08T01:23:58.782Z,100.00
2024-02-08T01:26:25.506Z,100.00
2024-02-08T01:28:55.303Z,100.00
2024-02-08T01:31:22.092Z,100.00
2024-02-08T01:33:51.409Z,100.00
2024-02-08T01:36:18.011Z,100.00
2024-02-08T01:38:45.678Z,100.00
2024-02-08T01:41:12.441Z,100.00
2024-02-08T01:43:39.409Z,100.00
2024-02-08T01:46:09.422Z,100.00
2024-02-08T01:48:37.547Z,100.00
2024-02-08T01:51:05.757Z,100.00
2024-02-08T01:53:33.193Z,100.00
2024-02-08T01:56:04.352Z,100.00
2024-02-08T01:58:31.839Z,100.00
2024-02-08T02:01:00.578Z,100.00
2024-02-08T02:03:27.611Z,100.00
2024-02-08T02:05:54.519Z,100.00
2024-02-08T02:08:22.802Z,100.00
2024-02-08T02:10:53.993Z,100.00
2024-02-08T02:13:21.012Z,100.00
2024-02-08T02:15:48.052Z,100.00
2024-02-08T02:18:16.918Z,100.00
2024-02-08T02:20:43.567Z,100.00
2024-02-08T02:23:10.931Z,100.00
2024-02-08T02:25:39.564Z,100.00
2024-02-08T02:28:09.176Z,100.00
2024-02-08T02:30:36.784Z,100.00
2024-02-08T02:33:06.996Z,100.00
2024-02-08T02:35:34.065Z,100.00
2024-02-08T02:38:03.128Z,100.00
2024-02-08T02:40:30.985Z,100.00
2024-02-08T02:42:58.271Z,100.00
2024-02-08T02:45:30.825Z,100.00
2024-02-08T02:47:58.950Z,100.00
2024-02-08T02:50:25.775Z,100.00
2024-02-08T02:52:52.695Z,100.00
2024-02-08T02:55:19.966Z,100.00
2024-02-08T02:57:47.015Z,100.00
2024-02-08T03:00:22.967Z,100.00
2024-02-08T03:02:52.870Z,100.00
2024-02-08T03:05:21.780Z,100.00
2024-02-08T03:07:49.300Z,100.00
2024-02-08T03:10:20.241Z,100.00
2024-02-08T03:12:47.789Z,100.00
2024-02-08T03:15:14.592Z,100.00
2024-02-08T03:17:41.458Z,100.00
2024-02-08T03:22:47.154Z,100.00
2024-02-08T03:25:16.632Z,100.00
2024-02-08T03:27:43.739Z,100.00
2024-02-08T03:30:20.112Z,100.00
2024-02-08T03:32:48.373Z,100.00
2024-02-08T03:35:15.349Z,100.00
2024-02-08T03:37:44.709Z,100.00
2024-02-08T03:40:11.899Z,100.00
2024-02-08T03:42:38.711Z,100.00
2024-02-08T03:45:07.662Z,100.00
2024-02-08T03:47:34.435Z,100.00
2024-02-08T03:50:01.264Z,100.00
2024-02-08T03:52:30.986Z,100.00
2024-02-08T03:54:57.903Z,100.00
2024-02-08T03:57:24.758Z,100.00
2024-02-08T03:59:53.345Z,100.00
2024-02-08T04:02:22.503Z,100.00
2024-02-08T04:05:00.033Z,100.00
2024-02-08T04:07:45.438Z,100.00
2024-02-08T04:10:51.490Z,100.00
2024-02-08T04:13:39.776Z,100.00
2024-02-08T04:16:25.746Z,100.00
2024-02-08T04:19:11.696Z,100.00
2024-02-08T04:21:57.432Z,100.00
2024-02-08T04:24:43.212Z,100.00
2024-02-08T04:27:28.778Z,100.00
2024-02-08T04:30:14.463Z,100.00
2024-02-08T04:33:00.017Z,100.00
2024-02-08T04:35:45.528Z,100.00
2024-02-08T04:38:31.003Z,100.00
2024-02-08T04:41:16.563Z,100.00
2024-02-08T04:44:02.272Z,100.00
2024-02-08T04:46:47.783Z,100.00
2024-02-08T04:49:33.295Z,100.00
2024-02-08T04:52:18.750Z,100.00
2024-02-08T04:54:45.508Z,100.00
2024-02-08T04:57:12.223Z,100.00
2024-02-08T04:59:43.168Z,100.00
2024-02-08T05:02:10.145Z,100.00
2024-02-08T05:04:37.157Z,100.00
2024-02-08T05:07:04.804Z,100.00
2024-02-08T05:09:32.129Z,100.00
2024-02-08T05:12:00.396Z,100.00
2024-02-08T05:14:27.488Z,100.00
2024-02-08T05:16:57.101Z,100.00
2024-02-08T05:19:26.878Z,100.00
2024-02-08T05:21:55.218Z,100.00
2024-02-08T05:24:21.943Z,100.00
2024-02-08T05:26:48.887Z,100.00
2024-02-08T05:29:20.103Z,100.00
2024-02-08T05:31:48.102Z,100.00
2024-02-08T05:34:18.285Z,100.00
2024-02-08T05:36:46.106Z,100.00
2024-02-08T05:39:24.585Z,100.00
2024-02-08T05:41:54.190Z,100.00
2024-02-08T05:44:21.448Z,100.00
2024-02-08T05:46:48.718Z,100.00
2024-02-08T05:49:16.591Z,100.00
2024-02-08T05:51:52.736Z,100.00
2024-02-08T05:54:32.109Z,100.00
2024-02-08T05:57:03.845Z,100.00
2024-02-08T05:59:32.241Z,100.00
2024-02-08T06:02:01.508Z,100.00
2024-02-08T06:04:35.245Z,100.00
2024-02-08T06:07:13.089Z,100.00
2024-02-08T06:09:49.375Z,100.00
2024-02-08T06:12:29.023Z,100.00
2024-02-08T06:15:15.060Z,100.00
2024-02-08T06:17:46.227Z,100.00
2024-02-08T06:20:15.374Z,100.00
2024-02-08T06:22:43.962Z,100.00
2024-02-08T06:25:33.094Z,100.00
2024-02-08T06:28:03.363Z,100.00
2024-02-08T06:30:32.251Z,100.00
2024-02-08T06:33:25.963Z,100.00
2024-02-08T06:35:57.575Z,100.00
2024-02-08T06:38:45.069Z,100.00
2024-02-08T06:41:24.618Z,100.00
2024-02-08T06:43:59.093Z,100.00
2024-02-08T06:46:55.037Z,100.00
2024-02-08T06:49:40.670Z,100.00
2024-02-08T06:52:26.076Z,100.00
2024-02-08T06:55:11.685Z,100.00
2024-02-08T06:57:57.351Z,100.00
2024-02-08T07:00:43.304Z,100.00
2024-02-08T07:03:28.988Z,100.00
2024-02-08T07:06:15.399Z,100.00
2024-02-08T07:09:00.865Z,100.00
2024-02-08T07:11:46.643Z,100.00
2024-02-08T07:14:34.264Z,100.00
2024-02-08T07:17:19.751Z,100.00
2024-02-08T07:20:05.684Z,100.00
2024-02-08T07:22:51.088Z,100.00
2024-02-08T07:25:37.050Z,100.00
2024-02-08T07:28:24.049Z,100.00
2024-02-08T07:31:09.673Z,100.00
2024-02-08T07:33:55.154Z,100.00
2024-02-08T07:36:41.287Z,100.00
2024-02-08T07:39:26.488Z,100.00
2024-02-08T07:41:56.378Z,100.00
2024-02-08T07:44:32.595Z,100.00
2024-02-08T07:47:04.626Z,100.00
2024-02-08T07:49:44.998Z,100.00
2024-02-08T07:52:20.060Z,100.00
2024-02-08T07:54:48.333Z,100.00
2024-02-08T07:57:15.263Z,100.00
2024-02-08T07:59:43.830Z,100.00
2024-02-08T08:02:14.365Z,100.00
2024-02-08T08:04:59.294Z,100.00
2024-02-08T08:07:26.343Z,100.00
2024-02-08T08:10:00.540Z,100.00
2024-02-08T08:12:29.290Z,100.00
2024-02-08T08:15:02.161Z,100.00
2024-02-08T08:17:29.625Z,100.00
2024-02-08T08:19:59.499Z,100.00
2024-02-08T08:22:26.552Z,100.00
2024-02-08T08:25:12.520Z,100.00
2024-02-08T08:27:51.801Z,100.00
2024-02-08T08:30:31.258Z,100.00
2024-02-08T08:33:12.548Z,100.00
2024-02-08T08:35:48.629Z,100.00
2024-02-08T08:38:18.415Z,100.00
2024-02-08T08:41:00.989Z,100.00
2024-02-08T08:43:27.990Z,100.00
2024-02-08T08:46:00.301Z,100.00
2024-02-08T08:48:30.970Z,100.00
2024-02-08T08:50:58.267Z,100.00
2024-02-08T08:53:29.012Z,100.00
2024-02-08T08:55:57.020Z,100.00
2024-02-08T08:58:28.463Z,100.00
2024-02-08T09:01:14.372Z,100.00
2024-02-08T09:03:45.606Z,100.00
2024-02-08T09:06:17.791Z,99.72
2024-02-08T09:08:55.794Z,97.36
2024-02-08T09:11:25.634Z,95.57
2024-02-08T09:13:55.831Z,94.56
2024-02-08T09:16:23.085Z,93.87
2024-02-08T09:18:59.455Z,93.70
2024-02-08T09:21:33.060Z,94.09
2024-02-08T09:24:05.505Z,94.07
2024-02-08T09:27:01.756Z,93.72
2024-02-08T09:29:39.493Z,92.36
2024-02-08T09:32:19.704Z,90.95
2024-02-08T09:34:48.844Z,87.27
2024-02-08T09:37:16.189Z,83.24
2024-02-08T09:40:15.605Z,81.09
2024-02-08T09:42:55.335Z,79.35
2024-02-08T09:45:36.984Z,77.55
2024-02-08T09:48:11.896Z,75.57
2024-02-08T09:50:48.386Z,74.21
2024-02-08T09:53:18.915Z,73.13
2024-02-08T09:55:46.157Z,72.70
2024-02-08T09:58:14.013Z,72.09
2024-02-08T10:00:58.456Z,71.35
2024-02-08T10:03:35.724Z,70.42
2024-02-08T10:06:24.631Z,69.77
2024-02-08T10:08:54.543Z,69.08
2024-02-08T10:11:25.302Z,68.55
2024-02-08T10:14:03.504Z,68.29
2024-02-08T10:16:42.727Z,68.16
2024-02-08T10:19:28.037Z,68.30
2024-02-08T10:21:59.115Z,68.28
2024-02-08T10:24:44.885Z,68.18
2024-02-08T10:27:21.003Z,68.38
2024-02-08T10:29:57.129Z,68.49
2024-02-08T10:32:28.298Z,69.02
2024-02-08T10:35:14.757Z,69.48
2024-02-08T10:37:48.507Z,69.66
2024-02-08T10:40:31.369Z,69.90
2024-02-08T10:43:17.504Z,70.11
2024-02-08T10:45:53.933Z,70.57
2024-02-08T10:48:23.968Z,71.07
2024-02-08T10:50:51.276Z,71.71
2024-02-08T10:53:38.493Z,71.75
2024-02-08T10:56:14.764Z,71.42
2024-02-08T10:59:11.714Z,71.42
2024-02-08T11:01:52.853Z,70.63
2024-02-08T11:04:29.408Z,69.80
2024-02-08T11:07:29.474Z,68.61
2024-02-08T11:09:59.964Z,68.22
2024-02-08T11:12:30.768Z,67.75
2024-02-08T11:14:58.938Z,67.01
2024-02-08T11:17:26.771Z,66.92
2024-02-08T11:20:00.335Z,67.06
2024-02-08T11:22:40.672Z,67.40
2024-02-08T11:25:29.314Z,67.12
2024-02-08T11:27:58.544Z,66.83
2024-02-08T11:30:36.451Z,66.17
2024-02-08T11:33:04.238Z,65.90
2024-02-08T11:35:32.495Z,65.35
2024-02-08T11:38:22.269Z,64.09
2024-02-08T11:40:49.433Z,63.33
2024-02-08T11:43:25.912Z,62.40
2024-02-08T11:45:55.259Z,61.75
2024-02-08T11:48:27.015Z,60.95
2024-02-08T11:50:59.404Z,60.53
2024-02-08T11:53:32.691Z,60.19
2024-02-08T11:56:02.802Z,60.25
2024-02-08T11:58:36.271Z,60.43
2024-02-08T12:01:04.557Z,60.69
2024-02-08T12:03:31.468Z,61.03
2024-02-08T12:05:59.755Z,61.39
2024-02-08T12:08:34.399Z,61.63
2024-02-08T12:11:07.743Z,61.84
2024-02-08T12:13:39.762Z,62.10
2024-02-08T12:16:07.004Z,62.15
2024-02-08T12:18:34.516Z,62.47
2024-02-08T12:21:02.453Z,62.71
2024-02-08T12:23:49.861Z,62.50
2024-02-08T12:27:06.057Z,62.76
2024-02-08T12:29:33.408Z,62.98
2024-02-08T12:32:00.253Z,63.19
2024-02-08T12:34:34.274Z,63.23
2024-02-08T12:37:06.816Z,63.18
2024-02-08T12:39:44.954Z,63.36
2024-02-08T12:42:14.362Z,62.55
2024-02-08T12:44:41.203Z,60.71
2024-02-08T12:47:10.508Z,58.70
2024-02-08T12:49:37.664Z,57.28
2024-02-08T12:52:10.427Z,56.74
2024-02-08T12:54:38.363Z,56.50
2024-02-08T12:57:09.333Z,55.99
2024-02-08T12:59:36.664Z,55.87
2024-02-08T13:02:09.745Z,56.05
2024-02-08T13:04:44.404Z,56.11
2024-02-08T13:07:18.303Z,55.48
2024-02-08T13:09:45.856Z,55.06
2024-02-08T13:12:16.432Z,55.11
2024-02-08T13:14:50.168Z,55.10
2024-02-08T13:17:20.832Z,55.21
2024-02-08T13:19:48.620Z,54.77
2024-02-08T13:22:15.861Z,54.69
2024-02-08T13:24:45.918Z,54.87
2024-02-08T13:27:14.053Z,54.68
2024-02-08T13:29:42.138Z,54.87
2024-02-08T13:32:08.883Z,55.00
2024-02-08T13:34:35.960Z,55.24
2024-02-08T13:37:03.021Z,55.68
2024-02-08T13:39:33.446Z,55.80
2024-02-08T13:42:00.487Z,56.32
2024-02-08T13:44:27.756Z,56.60
2024-02-08T13:46:55.040Z,56.69
2024-02-08T13:49:25.446Z,57.04
2024-02-08T13:51:53.397Z,57.33
2024-02-08T13:54:20.954Z,57.56
2024-02-08T13:56:47.798Z,57.52
2024-02-08T13:59:15.533Z,57.15
2024-02-08T14:01:45.432Z,56.86
2024-02-08T14:04:21.330Z,56.87
2024-02-08T14:06:55.975Z,56.62
2024-02-08T14:09:25.742Z,56.61
2024-02-08T14:11:56.429Z,56.57
2024-02-08T14:14:30.829Z,56.84
2024-02-08T14:16:59.522Z,57.00
2024-02-08T14:19:34.661Z,57.32
2024-02-08T14:22:07.625Z,57.21
2024-02-08T14:24:39.929Z,57.23
2024-02-08T14:27:06.757Z,57.34
2024-02-08T14:29:36.683Z,57.39
2024-02-08T14:32:21.113Z,57.50
2024-02-08T14:34:59.489Z,57.49
2024-02-08T14:37:29.170Z,57.58
2024-02-08T14:39:56.939Z,57.76
2024-02-08T14:42:28.699Z,57.78
2024-02-08T14:44:57.384Z,57.81
2024-02-08T14:47:26.095Z,57.86
2024-02-08T14:49:56.315Z,58.08
2024-02-08T14:52:35.251Z,58.06
2024-02-08T14:55:11.614Z,58.23
2024-02-08T14:57:45.994Z,58.37
2024-02-08T15:00:31.649Z,58.41
2024-02-08T15:03:19.789Z,58.72
2024-02-08T15:05:50.763Z,58.98
2024-02-08T15:08:24.718Z,59.24
2024-02-08T15:11:03.931Z,59.30
2024-02-08T15:13:39.071Z,59.34
2024-02-08T15:16:08.564Z,59.35
2024-02-08T15:18:47.901Z,59.47
2024-02-08T15:21:24.580Z,59.61
2024-02-08T15:24:12.680Z,59.70
2024-02-08T15:26:45.327Z,59.90
2024-02-08T15:29:30.824Z,59.99
2024-02-08T15:31:58.189Z,60.15
2024-02-08T15:34:43.815Z,60.35
2024-02-08T15:37:29.885Z,60.64
2024-02-08T15:39:59.305Z,60.84
2024-02-08T15:42:38.078Z,61.11
2024-02-08T15:45:11.474Z,61.28
2024-02-08T15:47:55.466Z,61.46
2024-02-08T15:50:25.641Z,61.89
2024-02-08T15:52:55.262Z,62.38
2024-02-08T15:55:26.454Z,62.53
2024-02-08T15:58:16.190Z,62.55
2024-02-08T16:01:01.970Z,62.63
2024-02-08T16:03:29.301Z,62.49
2024-02-08T16:05:56.999Z,62.48
2024-02-08T16:08:38.660Z,62.46
2024-02-08T16:11:19.535Z,62.47
2024-02-08T16:13:58.088Z,62.52
2024-02-08T16:16:25.313Z,62.57
2024-02-08T16:18:59.854Z,62.69
2024-02-08T16:21:30.672Z,62.77
2024-02-08T16:24:13.827Z,62.74
2024-02-08T16:26:45.228Z,62.93
2024-02-08T16:29:17.436Z,62.99
2024-02-08T16:31:55.503Z,63.18
2024-02-08T16:34:26.786Z,63.38
2024-02-08T16:36:53.858Z,63.54
2024-02-08T16:39:20.689Z,63.70
2024-02-08T16:41:48.654Z,63.81
2024-02-08T16:44:15.805Z,63.96
2024-02-08T16:46:52.702Z,64.14
2024-02-08T16:49:19.680Z,64.35
2024-02-08T16:51:48.571Z,64.75
2024-02-08T16:54:29.819Z,65.34
2024-02-08T16:56:57.837Z,65.91
2024-02-08T16:59:45.317Z,66.35
2024-02-08T17:02:27.046Z,66.66
2024-02-08T17:05:17.152Z,66.56
2024-02-08T17:07:44.368Z,66.82
2024-02-08T17:10:13.522Z,67.25
2024-02-08T17:12:57.489Z,67.65
2024-02-08T17:15:41.758Z,68.14
2024-02-08T17:18:17.362Z,68.50
2024-02-08T17:20:53.984Z,68.89
2024-02-08T17:23:28.456Z,69.02
2024-02-08T17:26:07.080Z,69.12
2024-02-08T17:28:50.459Z,69.20
2024-02-08T17:31:29.477Z,69.44
2024-02-08T17:33:57.424Z,69.72
2024-02-08T17:36:33.867Z,69.97
2024-02-08T17:39:00.776Z,70.05
2024-02-08T17:41:30.280Z,69.95
2024-02-08T17:44:04.398Z,69.83
2024-02-08T17:46:31.790Z,69.76
2024-02-08T17:48:59.339Z,69.54
2024-02-08T17:51:32.446Z,69.59
2024-02-08T17:54:01.403Z,69.84
2024-02-08T17:56:32.346Z,70.08
2024-02-08T17:58:59.930Z,70.42
2024-02-08T18:01:38.959Z,70.67
2024-02-08T18:04:06.121Z,70.84
2024-02-08T18:06:33.118Z,70.89
2024-02-08T18:09:00.096Z,71.18
2024-02-08T18:11:30.592Z,71.18
2024-02-08T18:13:59.956Z,71.30
2024-02-08T18:16:31.101Z,71.40
2024-02-08T18:19:07.055Z,71.48
2024-02-08T18:21:34.760Z,71.66
2024-02-08T18:24:03.605Z,71.74
2024-02-08T18:26:32.488Z,72.06
2024-02-08T18:29:05.517Z,72.43
2024-02-08T18:31:35.442Z,72.81
2024-02-08T18:34:02.509Z,73.18
2024-02-08T18:36:31.250Z,73.57
2024-02-08T18:38:59.536Z,73.90
2024-02-08T18:41:26.890Z,74.29
2024-02-08T18:43:53.933Z,74.44
2024-02-08T18:46:24.808Z,74.70
2024-02-08T18:48:56.939Z,74.94
2024-02-08T18:51:24.088Z,75.12
2024-02-08T18:53:50.989Z,75.46
2024-02-08T18:56:21.231Z,75.78
2024-02-08T18:58:52.381Z,76.13
2024-02-08T19:01:21.391Z,76.68
2024-02-08T19:03:48.640Z,77.36
2024-02-08T19:06:16.448Z,77.80
2024-02-08T19:08:44.522Z,78.21
2024-02-08T19:11:11.722Z,78.61
2024-02-08T19:13:39.847Z,78.81
2024-02-08T19:16:08.080Z,79.35
2024-02-08T19:18:44.733Z,79.75
2024-02-08T19:21:14.930Z,80.19
2024-02-08T19:23:44.951Z,80.43
2024-02-08T19:26:25.831Z,80.61
2024-02-08T19:28:52.936Z,80.58
2024-02-08T19:31:20.359Z,80.80
2024-02-08T19:33:51.922Z,80.85
2024-02-08T19:36:24.976Z,81.04
2024-02-08T19:38:55.205Z,81.28
2024-02-08T19:41:22.251Z,81.51
2024-02-08T19:43:49.336Z,81.74
2024-02-08T19:46:19.955Z,81.93
2024-02-08T19:48:53.029Z,82.28
2024-02-08T19:51:25.744Z,82.66
2024-02-08T19:53:55.626Z,83.24
2024-02-08T19:56:26.972Z,83.87
2024-02-08T19:58:54.035Z,84.39
2024-02-08T20:01:24.425Z,84.98
2024-02-08T20:03:53.218Z,85.37
2024-02-08T20:06:27.822Z,85.83
2024-02-08T20:08:57.826Z,86.27
2024-02-08T20:11:24.644Z,86.58
2024-02-08T20:13:59.764Z,87.14
2024-02-08T20:16:31.901Z,87.45
2024-02-08T20:19:00.458Z,87.74
2024-02-08T20:21:28.201Z,87.94
2024-02-08T20:23:55.691Z,88.46
2024-02-08T20:26:26.131Z,89.00
2024-02-08T20:28:56.138Z,89.58
2024-02-08T20:31:25.010Z,90.10
2024-02-08T20:33:55.172Z,90.36
2024-02-08T20:36:22.897Z,90.82
2024-02-08T20:38:54.169Z,91.34
2024-02-08T20:41:24.272Z,91.87
2024-02-08T20:43:56.251Z,92.34
2024-02-08T20:46:23.237Z,92.84
2024-02-08T20:48:55.067Z,93.17
2024-02-08T20:51:22.932Z,93.39
2024-02-08T20:53:49.778Z,93.92
2024-02-08T20:56:26.762Z,94.57
2024-02-08T20:58:55.448Z,95.28
2024-02-08T21:01:25.025Z,95.99
2024-02-08T21:03:52.811Z,96.53
2024-02-08T21:06:22.957Z,96.95
2024-02-08T21:08:50.754Z,97.46
2024-02-08T21:11:18.659Z,97.53
2024-02-08T21:13:50.072Z,97.78
2024-02-08T21:16:20.324Z,97.80
2024-02-08T21:18:47.140Z,97.70
2024-02-08T21:21:14.464Z,97.67
2024-02-08T21:23:41.517Z,97.41
2024-02-08T21:26:15.571Z,97.11
2024-02-08T21:28:47.980Z,96.86
2024-02-08T21:31:18.783Z,96.48
2024-02-08T21:33:51.164Z,96.14
2024-02-08T21:36:18.535Z,95.68
2024-02-08T21:38:49.618Z,95.43
2024-02-08T21:41:16.731Z,95.06
2024-02-08T21:43:43.802Z,94.44
2024-02-08T21:46:14.100Z,93.82
2024-02-08T21:48:42.036Z,93.31
2024-02-08T21:51:09.380Z,93.08
2024-02-08T21:53:36.319Z,92.75
2024-02-08T21:56:03.468Z,92.68
2024-02-08T21:58:31.650Z,92.50
2024-02-08T22:03:43.564Z,91.93
2024-02-08T22:06:10.559Z,91.72
2024-02-08T22:08:37.671Z,91.68
2024-02-08T22:11:08.597Z,91.47
2024-02-08T22:13:35.674Z,91.36
2024-02-08T22:16:02.647Z,91.37
2024-02-08T22:18:29.773Z,91.07
2024-02-08T22:20:56.596Z,91.11
2024-02-08T22:23:23.243Z,91.32
2024-02-08T22:25:50.656Z,91.79
2024-02-08T22:28:19.853Z,92.36
2024-02-08T22:30:46.683Z,92.90
2024-02-08T22:33:14.772Z,93.78
2024-02-08T22:35:41.640Z,94.80
2024-02-08T22:38:09.038Z,95.90
2024-02-08T22:40:36.441Z,97.03
2024-02-08T22:43:04.220Z,98.17
2024-02-08T22:45:31.104Z,99.16
2024-02-08T22:47:57.867Z,99.99
2024-02-08T22:50:24.683Z,100.00
2024-02-08T22:52:53.408Z,100.00
2024-02-08T22:55:23.335Z,100.00
2024-02-08T22:57:50.584Z,100.00
2024-02-08T23:00:40.956Z,100.00
2024-02-08T23:03:07.643Z,100.00
2024-02-08T23:05:40.068Z,100.00
2024-02-08T23:08:09.597Z,100.00
2024-02-08T23:10:36.663Z,100.00
2024-02-08T23:13:04.000Z,100.00
2024-02-08T23:15:30.803Z,100.00
2024-02-08T23:17:58.264Z,100.00
2024-02-08T23:20:25.249Z,100.00
2024-02-08T23:22:52.474Z,100.00
2024-02-08T23:25:19.402Z,100.00
2024-02-08T23:27:48.559Z,100.00
2024-02-08T23:30:15.780Z,100.00
2024-02-08T23:32:51.908Z,100.00
2024-02-08T23:35:25.125Z,100.00
2024-02-08T23:37:56.473Z,100.00
2024-02-08T23:40:27.330Z,100.00
2024-02-08T23:42:57.797Z,100.00
2024-02-08T23:45:31.754Z,100.00
2024-02-08T23:47:59.393Z,100.00
2024-02-08T23:50:26.680Z,100.00
2024-02-08T23:52:53.654Z,100.00
2024-02-08T23:55:23.994Z,100.00
2024-02-08T23:57:50.917Z,100.00
